Terminal Aerodrome Forecast
Issued by NWS Bismarck, ND

Home | Current Version | Previous Version | Graphics & Text | Print | Product List | Glossary On
Versions: 1 2 3 4 5 6 7 8 9 10 11 12 13 14 15 16 17 18 19 20 21 22
000
FTUS43 KBIS 241700
TAFBIS
TAF
KBIS 241736Z 2418/2518 10020G26KT P6SM SCT030
      TEMPO 2418/2420 BKN030
     FM242000 14017G23KT P6SM SCT060 SCT090
     FM250400 VRB05KT P6SM VCTS SCT050CB BKN090
     FM251000 32014KT P6SM SCT070 SCT090=

USA.gov is the U.S. government's official web portal to all federal, state and local government web resources and services.